sensor_id;sensor_type;location;lat;lon;timestamp;temperature;humidity
37242;DHT22;23135;51.078;12.108;2023-01-25T00:02:06;0.50;99.90
37242;DHT22;23135;51.078;12.108;2023-01-25T00:04:31;0.50;99.90
37242;DHT22;23135;51.078;12.108;2023-01-25T00:06:57;0.50;99.90
37242;DHT22;23135;51.078;12.108;2023-01-25T00:09:24;0.50;99.90
37242;DHT22;23135;51.078;12.108;2023-01-25T00:11:50;0.50;99.90
37242;DHT22;23135;51.078;12.108;2023-01-25T00:14:17;0.50;99.90
37242;DHT22;23135;51.078;12.108;2023-01-25T00:16:43;0.50;99.90
37242;DHT22;23135;51.078;12.108;2023-01-25T00:19:10;0.50;99.90
37242;DHT22;23135;51.078;12.108;2023-01-25T00:21:36;0.50;99.90
37242;DHT22;23135;51.078;12.108;2023-01-25T00:24:02;0.50;99.90
37242;DHT22;23135;51.078;12.108;2023-01-25T00:26:29;0.50;99.90
37242;DHT22;23135;51.078;12.108;2023-01-25T00:28:55;0.50;99.90
37242;DHT22;23135;51.078;12.108;2023-01-25T00:37:02;0.40;99.90
37242;DHT22;23135;51.078;12.108;2023-01-25T00:39:34;0.50;99.90
37242;DHT22;23135;51.078;12.108;2023-01-25T00:42:00;0.50;99.90
37242;DHT22;23135;51.078;12.108;2023-01-25T00:44:26;0.50;99.90
37242;DHT22;23135;51.078;12.108;2023-01-25T00:46:51;0.40;99.90
37242;DHT22;23135;51.078;12.108;2023-01-25T00:49:23;0.50;99.90
37242;DHT22;23135;51.078;12.108;2023-01-25T00:51:50;0.50;99.90
37242;DHT22;23135;51.078;12.108;2023-01-25T00:54:17;0.40;99.90
37242;DHT22;23135;51.078;12.108;2023-01-25T00:56:42;0.50;99.90
37242;DHT22;23135;51.078;12.108;2023-01-25T00:59:09;0.40;99.90
37242;DHT22;23135;51.078;12.108;2023-01-25T01:01:35;0.40;99.90
37242;DHT22;23135;51.078;12.108;2023-01-25T01:04:00;0.40;99.90
37242;DHT22;23135;51.078;12.108;2023-01-25T01:06:26;0.40;99.90
37242;DHT22;23135;51.078;12.108;2023-01-25T01:08:52;0.40;99.90
37242;DHT22;23135;51.078;12.108;2023-01-25T01:11:17;0.40;99.90
37242;DHT22;23135;51.078;12.108;2023-01-25T01:13:43;0.40;99.90
37242;DHT22;23135;51.078;12.108;2023-01-25T01:16:10;0.40;99.90
37242;DHT22;23135;51.078;12.108;2023-01-25T01:18:38;0.40;99.90
37242;DHT22;23135;51.078;12.108;2023-01-25T01:21:05;0.40;99.90
37242;DHT22;23135;51.078;12.108;2023-01-25T01:23:31;0.40;99.90
37242;DHT22;23135;51.078;12.108;2023-01-25T01:26:05;0.40;99.90
37242;DHT22;23135;51.078;12.108;2023-01-25T01:28:32;0.40;99.90
37242;DHT22;23135;51.078;12.108;2023-01-25T01:31:07;0.40;99.90
37242;DHT22;23135;51.078;12.108;2023-01-25T01:33:33;0.40;99.90
37242;DHT22;23135;51.078;12.108;2023-01-25T01:36:05;0.40;99.90
37242;DHT22;23135;51.078;12.108;2023-01-25T01:38:31;0.40;99.90
37242;DHT22;23135;51.078;12.108;2023-01-25T01:40:57;0.40;99.90
37242;DHT22;23135;51.078;12.108;2023-01-25T01:43:23;0.40;99.90
37242;DHT22;23135;51.078;12.108;2023-01-25T01:45:55;0.40;99.90
37242;DHT22;23135;51.078;12.108;2023-01-25T01:50:59;0.40;99.90
37242;DHT22;23135;51.078;12.108;2023-01-25T01:53:26;0.40;99.90
37242;DHT22;23135;51.078;12.108;2023-01-25T01:55:56;0.40;99.90
37242;DHT22;23135;51.078;12.108;2023-01-25T01:58:23;0.40;99.90
37242;DHT22;23135;51.078;12.108;2023-01-25T02:00:49;0.40;99.90
37242;DHT22;23135;51.078;12.108;2023-01-25T02:03:15;0.40;99.90
37242;DHT22;23135;51.078;12.108;2023-01-25T02:08:40;0.40;99.90
37242;DHT22;23135;51.078;12.108;2023-01-25T02:11:08;0.40;99.90
37242;DHT22;23135;51.078;12.108;2023-01-25T02:13:35;0.40;99.90
37242;DHT22;23135;51.078;12.108;2023-01-25T02:16:02;0.40;99.90
37242;DHT22;23135;51.078;12.108;2023-01-25T02:18:28;0.40;99.90
37242;DHT22;23135;51.078;12.108;2023-01-25T02:20:56;0.40;99.90
37242;DHT22;23135;51.078;12.108;2023-01-25T02:26:05;0.30;99.90
37242;DHT22;23135;51.078;12.108;2023-01-25T02:28:42;0.30;99.90
37242;DHT22;23135;51.078;12.108;2023-01-25T02:31:09;0.30;99.90
37242;DHT22;23135;51.078;12.108;2023-01-25T02:33:35;0.30;99.90
37242;DHT22;23135;51.078;12.108;2023-01-25T02:38:32;0.30;99.90
37242;DHT22;23135;51.078;12.108;2023-01-25T02:41:17;0.30;99.90
37242;DHT22;23135;51.078;12.108;2023-01-25T02:43:45;0.40;99.90
37242;DHT22;23135;51.078;12.108;2023-01-25T02:46:32;0.30;99.90
37242;DHT22;23135;51.078;12.108;2023-01-25T02:48:59;0.30;99.90
37242;DHT22;23135;51.078;12.108;2023-01-25T02:51:28;0.30;99.90
37242;DHT22;23135;51.078;12.108;2023-01-25T02:53:55;0.30;99.90
37242;DHT22;23135;51.078;12.108;2023-01-25T02:56:21;0.30;99.90
37242;DHT22;23135;51.078;12.108;2023-01-25T02:58:47;0.30;99.90
37242;DHT22;23135;51.078;12.108;2023-01-25T03:01:13;0.20;99.90
37242;DHT22;23135;51.078;12.108;2023-01-25T03:03:39;0.20;99.90
37242;DHT22;23135;51.078;12.108;2023-01-25T03:06:05;0.20;99.90
37242;DHT22;23135;51.078;12.108;2023-01-25T03:08:32;0.20;99.90
37242;DHT22;23135;51.078;12.108;2023-01-25T03:10:59;0.30;99.90
37242;DHT22;23135;51.078;12.108;2023-01-25T03:13:25;0.20;99.90
37242;DHT22;23135;51.078;12.108;2023-01-25T03:15:51;0.30;99.90
37242;DHT22;23135;51.078;12.108;2023-01-25T03:18:16;0.30;99.90
37242;DHT22;23135;51.078;12.108;2023-01-25T03:20:42;0.30;99.90
37242;DHT22;23135;51.078;12.108;2023-01-25T03:23:07;0.30;99.90
37242;DHT22;23135;51.078;12.108;2023-01-25T03:25:33;0.30;99.90
37242;DHT22;23135;51.078;12.108;2023-01-25T03:27:58;0.30;99.90
37242;DHT22;23135;51.078;12.108;2023-01-25T03:30:24;0.30;99.90
37242;DHT22;23135;51.078;12.108;2023-01-25T03:32:50;0.30;99.90
37242;DHT22;23135;51.078;12.108;2023-01-25T03:35:15;0.30;99.90
37242;DHT22;23135;51.078;12.108;2023-01-25T03:37:41;0.30;99.90
37242;DHT22;23135;51.078;12.108;2023-01-25T03:40:07;0.30;99.90
37242;DHT22;23135;51.078;12.108;2023-01-25T03:42:32;0.30;99.90
37242;DHT22;23135;51.078;12.108;2023-01-25T03:44:58;0.20;99.90
37242;DHT22;23135;51.078;12.108;2023-01-25T03:47:23;0.30;99.90
37242;DHT22;23135;51.078;12.108;2023-01-25T03:49:49;0.30;99.90
37242;DHT22;23135;51.078;12.108;2023-01-25T03:52:15;0.20;99.90
37242;DHT22;23135;51.078;12.108;2023-01-25T03:54:40;0.20;99.90
37242;DHT22;23135;51.078;12.108;2023-01-25T03:57:06;0.30;99.90
37242;DHT22;23135;51.078;12.108;2023-01-25T03:59:31;0.30;99.90
37242;DHT22;23135;51.078;12.108;2023-01-25T04:01:57;0.30;99.90
37242;DHT22;23135;51.078;12.108;2023-01-25T04:04:22;0.30;99.90
37242;DHT22;23135;51.078;12.108;2023-01-25T04:06:48;0.30;99.90
37242;DHT22;23135;51.078;12.108;2023-01-25T04:09:13;0.30;99.90
37242;DHT22;23135;51.078;12.108;2023-01-25T04:11:40;0.30;99.90
37242;DHT22;23135;51.078;12.108;2023-01-25T04:14:05;0.30;99.90
37242;DHT22;23135;51.078;12.108;2023-01-25T04:16:31;0.30;99.90
37242;DHT22;23135;51.078;12.108;2023-01-25T04:18:57;0.30;99.90
37242;DHT22;23135;51.078;12.108;2023-01-25T04:21:22;0.30;99.90
37242;DHT22;23135;51.078;12.108;2023-01-25T04:23:48;0.30;99.90
37242;DHT22;23135;51.078;12.108;2023-01-25T04:26:14;0.30;99.90
37242;DHT22;23135;51.078;12.108;2023-01-25T04:28:39;0.30;99.90
37242;DHT22;23135;51.078;12.108;2023-01-25T04:31:05;0.30;99.90
37242;DHT22;23135;51.078;12.108;2023-01-25T04:33:31;0.30;99.90
37242;DHT22;23135;51.078;12.108;2023-01-25T04:35:58;0.40;99.90
37242;DHT22;23135;51.078;12.108;2023-01-25T04:38:24;0.30;99.90
37242;DHT22;23135;51.078;12.108;2023-01-25T04:40:50;0.40;99.90
37242;DHT22;23135;51.078;12.108;2023-01-25T04:43:17;0.40;99.90
37242;DHT22;23135;51.078;12.108;2023-01-25T04:45:43;0.40;99.90
37242;DHT22;23135;51.078;12.108;2023-01-25T04:48:11;0.30;99.90
37242;DHT22;23135;51.078;12.108;2023-01-25T04:50:38;0.30;99.90
37242;DHT22;23135;51.078;12.108;2023-01-25T04:53:05;0.30;99.90
37242;DHT22;23135;51.078;12.108;2023-01-25T04:55:31;0.40;99.90
37242;DHT22;23135;51.078;12.108;2023-01-25T04:57:58;0.30;99.90
37242;DHT22;23135;51.078;12.108;2023-01-25T05:00:24;0.30;99.90
37242;DHT22;23135;51.078;12.108;2023-01-25T05:02:49;0.30;99.90
37242;DHT22;23135;51.078;12.108;2023-01-25T05:05:15;0.30;99.90
37242;DHT22;23135;51.078;12.108;2023-01-25T05:07:41;0.30;99.90
37242;DHT22;23135;51.078;12.108;2023-01-25T05:10:07;0.30;99.90
37242;DHT22;23135;51.078;12.108;2023-01-25T05:12:33;0.30;99.90
37242;DHT22;23135;51.078;12.108;2023-01-25T05:14:58;0.30;99.90
37242;DHT22;23135;51.078;12.108;2023-01-25T05:17:24;0.30;99.90
37242;DHT22;23135;51.078;12.108;2023-01-25T05:19:49;0.40;99.90
37242;DHT22;23135;51.078;12.108;2023-01-25T05:22:17;0.30;99.90
37242;DHT22;23135;51.078;12.108;2023-01-25T05:24:45;0.40;99.90
37242;DHT22;23135;51.078;12.108;2023-01-25T05:27:13;0.30;99.90
37242;DHT22;23135;51.078;12.108;2023-01-25T05:29:41;0.40;99.90
37242;DHT22;23135;51.078;12.108;2023-01-25T05:32:10;0.30;99.90
37242;DHT22;23135;51.078;12.108;2023-01-25T05:34:36;0.40;99.90
37242;DHT22;23135;51.078;12.108;2023-01-25T05:37:03;0.30;99.90
37242;DHT22;23135;51.078;12.108;2023-01-25T05:39:29;0.40;99.90
37242;DHT22;23135;51.078;12.108;2023-01-25T05:41:55;0.40;99.90
37242;DHT22;23135;51.078;12.108;2023-01-25T05:44:21;0.40;99.90
37242;DHT22;23135;51.078;12.108;2023-01-25T05:46:47;0.40;99.90
37242;DHT22;23135;51.078;12.108;2023-01-25T05:49:12;0.30;99.90
37242;DHT22;23135;51.078;12.108;2023-01-25T05:51:38;0.30;99.90
37242;DHT22;23135;51.078;12.108;2023-01-25T05:54:04;0.30;99.90
37242;DHT22;23135;51.078;12.108;2023-01-25T05:56:31;0.30;99.90
37242;DHT22;23135;51.078;12.108;2023-01-25T05:58:58;0.30;99.90
37242;DHT22;23135;51.078;12.108;2023-01-25T06:01:24;0.30;99.90
37242;DHT22;23135;51.078;12.108;2023-01-25T06:03:50;0.30;99.90
37242;DHT22;23135;51.078;12.108;2023-01-25T06:06:16;0.30;99.90
37242;DHT22;23135;51.078;12.108;2023-01-25T06:08:42;0.30;99.90
37242;DHT22;23135;51.078;12.108;2023-01-25T06:11:12;0.40;99.90
37242;DHT22;23135;51.078;12.108;2023-01-25T06:13:38;0.40;99.90
37242;DHT22;23135;51.078;12.108;2023-01-25T06:16:05;0.40;99.90
37242;DHT22;23135;51.078;12.108;2023-01-25T06:18:32;0.40;99.90
37242;DHT22;23135;51.078;12.108;2023-01-25T06:20:59;0.30;99.90
37242;DHT22;23135;51.078;12.108;2023-01-25T06:23:25;0.30;99.90
37242;DHT22;23135;51.078;12.108;2023-01-25T06:25:51;0.30;99.90
37242;DHT22;23135;51.078;12.108;2023-01-25T06:28:19;0.30;99.90
37242;DHT22;23135;51.078;12.108;2023-01-25T06:30:45;0.30;99.90
37242;DHT22;23135;51.078;12.108;2023-01-25T06:33:10;0.30;99.90
37242;DHT22;23135;51.078;12.108;2023-01-25T06:35:36;0.30;99.90
37242;DHT22;23135;51.078;12.108;2023-01-25T06:38:02;0.30;99.90
37242;DHT22;23135;51.078;12.108;2023-01-25T06:40:27;0.30;99.90
37242;DHT22;23135;51.078;12.108;2023-01-25T06:42:53;0.30;99.90
37242;DHT22;23135;51.078;12.108;2023-01-25T06:45:19;0.30;99.90
37242;DHT22;23135;51.078;12.108;2023-01-25T06:47:47;0.20;99.90
37242;DHT22;23135;51.078;12.108;2023-01-25T06:50:13;0.30;99.90
37242;DHT22;23135;51.078;12.108;2023-01-25T06:52:39;0.20;99.90
37242;DHT22;23135;51.078;12.108;2023-01-25T06:55:06;0.20;99.90
37242;DHT22;23135;51.078;12.108;2023-01-25T06:57:34;0.20;99.90
37242;DHT22;23135;51.078;12.108;2023-01-25T07:00:00;0.20;99.90
37242;DHT22;23135;51.078;12.108;2023-01-25T07:02:25;0.20;99.90
37242;DHT22;23135;51.078;12.108;2023-01-25T07:04:51;0.20;99.90
37242;DHT22;23135;51.078;12.108;2023-01-25T07:07:17;0.20;99.90
37242;DHT22;23135;51.078;12.108;2023-01-25T07:09:42;0.20;99.90
37242;DHT22;23135;51.078;12.108;2023-01-25T07:12:08;0.20;99.90
37242;DHT22;23135;51.078;12.108;2023-01-25T07:14:33;0.10;99.90
37242;DHT22;23135;51.078;12.108;2023-01-25T07:16:59;0.10;99.90
37242;DHT22;23135;51.078;12.108;2023-01-25T07:19:25;0.20;99.90
37242;DHT22;23135;51.078;12.108;2023-01-25T07:21:51;0.20;99.90
37242;DHT22;23135;51.078;12.108;2023-01-25T07:24:18;0.20;99.90
37242;DHT22;23135;51.078;12.108;2023-01-25T07:26:44;0.20;99.90
37242;DHT22;23135;51.078;12.108;2023-01-25T07:29:12;0.20;99.90
37242;DHT22;23135;51.078;12.108;2023-01-25T07:31:38;0.20;99.90
37242;DHT22;23135;51.078;12.108;2023-01-25T07:34:04;0.20;99.90
37242;DHT22;23135;51.078;12.108;2023-01-25T07:36:29;0.20;99.90
37242;DHT22;23135;51.078;12.108;2023-01-25T07:38:56;0.20;99.90
37242;DHT22;23135;51.078;12.108;2023-01-25T07:41:23;0.20;99.90
37242;DHT22;23135;51.078;12.108;2023-01-25T07:43:49;0.20;99.90
37242;DHT22;23135;51.078;12.108;2023-01-25T07:46:15;0.20;99.90
37242;DHT22;23135;51.078;12.108;2023-01-25T07:48:48;0.20;99.90
37242;DHT22;23135;51.078;12.108;2023-01-25T07:51:15;0.20;99.90
37242;DHT22;23135;51.078;12.108;2023-01-25T07:53:56;0.30;99.90
37242;DHT22;23135;51.078;12.108;2023-01-25T07:56:25;0.30;99.90
37242;DHT22;23135;51.078;12.108;2023-01-25T07:58:52;0.30;99.90
37242;DHT22;23135;51.078;12.108;2023-01-25T08:01:20;0.30;99.90
37242;DHT22;23135;51.078;12.108;2023-01-25T08:03:47;0.30;99.90
37242;DHT22;23135;51.078;12.108;2023-01-25T08:06:13;0.30;99.90
37242;DHT22;23135;51.078;12.108;2023-01-25T08:08:41;0.30;99.90
37242;DHT22;23135;51.078;12.108;2023-01-25T08:11:15;0.30;99.90
37242;DHT22;23135;51.078;12.108;2023-01-25T08:13:41;0.30;99.90
37242;DHT22;23135;51.078;12.108;2023-01-25T08:16:11;0.40;99.90
37242;DHT22;23135;51.078;12.108;2023-01-25T08:18:37;0.40;99.90
37242;DHT22;23135;51.078;12.108;2023-01-25T08:21:02;0.40;99.90
37242;DHT22;23135;51.078;12.108;2023-01-25T08:23:28;0.40;99.90
37242;DHT22;23135;51.078;12.108;2023-01-25T08:25:54;0.40;99.90
37242;DHT22;23135;51.078;12.108;2023-01-25T08:28:21;0.40;99.90
37242;DHT22;23135;51.078;12.108;2023-01-25T08:30:46;0.40;99.90
37242;DHT22;23135;51.078;12.108;2023-01-25T08:33:12;0.40;99.90
37242;DHT22;23135;51.078;12.108;2023-01-25T08:35:38;0.40;99.90
37242;DHT22;23135;51.078;12.108;2023-01-25T08:38:03;0.40;99.90
37242;DHT22;23135;51.078;12.108;2023-01-25T08:40:29;0.40;99.90
37242;DHT22;23135;51.078;12.108;2023-01-25T08:42:55;0.50;99.90
37242;DHT22;23135;51.078;12.108;2023-01-25T08:45:21;0.50;99.90
37242;DHT22;23135;51.078;12.108;2023-01-25T08:47:46;0.50;99.90
37242;DHT22;23135;51.078;12.108;2023-01-25T08:50:12;0.50;99.90
37242;DHT22;23135;51.078;12.108;2023-01-25T08:52:37;0.50;99.90
37242;DHT22;23135;51.078;12.108;2023-01-25T08:55:03;0.50;99.90
37242;DHT22;23135;51.078;12.108;2023-01-25T08:57:29;0.60;99.90
37242;DHT22;23135;51.078;12.108;2023-01-25T08:59:55;0.60;99.90
37242;DHT22;23135;51.078;12.108;2023-01-25T09:02:21;0.70;99.90
37242;DHT22;23135;51.078;12.108;2023-01-25T09:04:46;0.70;99.90
37242;DHT22;23135;51.078;12.108;2023-01-25T09:07:12;0.70;99.90
37242;DHT22;23135;51.078;12.108;2023-01-25T09:09:37;0.70;99.90
37242;DHT22;23135;51.078;12.108;2023-01-25T09:12:03;0.80;99.90
37242;DHT22;23135;51.078;12.108;2023-01-25T09:14:29;0.80;99.90
37242;DHT22;23135;51.078;12.108;2023-01-25T09:16:55;0.80;99.90
37242;DHT22;23135;51.078;12.108;2023-01-25T09:19:20;0.80;99.90
37242;DHT22;23135;51.078;12.108;2023-01-25T09:21:46;0.80;99.90
37242;DHT22;23135;51.078;12.108;2023-01-25T09:24:12;0.80;99.90
37242;DHT22;23135;51.078;12.108;2023-01-25T09:26:41;0.90;99.90
37242;DHT22;23135;51.078;12.108;2023-01-25T09:29:07;0.90;99.90
37242;DHT22;23135;51.078;12.108;2023-01-25T09:31:33;0.90;99.90
37242;DHT22;23135;51.078;12.108;2023-01-25T09:33:59;0.90;99.90
37242;DHT22;23135;51.078;12.108;2023-01-25T09:36:25;1.00;99.90
37242;DHT22;23135;51.078;12.108;2023-01-25T09:38:50;1.00;99.90
37242;DHT22;23135;51.078;12.108;2023-01-25T09:47:51;1.00;99.90
37242;DHT22;23135;51.078;12.108;2023-01-25T09:53:22;1.00;99.90
37242;DHT22;23135;51.078;12.108;2023-01-25T09:55:52;1.00;99.90
37242;DHT22;23135;51.078;12.108;2023-01-25T09:58:24;1.00;99.90
37242;DHT22;23135;51.078;12.108;2023-01-25T10:00:58;1.00;99.90
37242;DHT22;23135;51.078;12.108;2023-01-25T10:03:42;1.00;99.90
37242;DHT22;23135;51.078;12.108;2023-01-25T10:06:11;1.00;99.90
37242;DHT22;23135;51.078;12.108;2023-01-25T10:11:35;1.00;99.90
37242;DHT22;23135;51.078;12.108;2023-01-25T10:14:13;1.00;99.90
37242;DHT22;23135;51.078;12.108;2023-01-25T10:21:59;1.10;99.90
37242;DHT22;23135;51.078;12.108;2023-01-25T10:27:38;1.10;99.90
37242;DHT22;23135;51.078;12.108;2023-01-25T10:30:24;1.10;99.90
37242;DHT22;23135;51.078;12.108;2023-01-25T10:32:52;1.10;99.90
37242;DHT22;23135;51.078;12.108;2023-01-25T10:35:21;1.00;99.90
37242;DHT22;23135;51.078;12.108;2023-01-25T10:37:49;1.10;99.90
37242;DHT22;23135;51.078;12.108;2023-01-25T10:40:22;1.10;99.90
37242;DHT22;23135;51.078;12.108;2023-01-25T10:42:53;1.10;99.90
37242;DHT22;23135;51.078;12.108;2023-01-25T10:45:20;1.20;99.90
37242;DHT22;23135;51.078;12.108;2023-01-25T10:47:53;1.20;99.90
37242;DHT22;23135;51.078;12.108;2023-01-25T10:50:43;1.20;99.90
37242;DHT22;23135;51.078;12.108;2023-01-25T10:53:32;1.10;99.90
37242;DHT22;23135;51.078;12.108;2023-01-25T10:58:46;1.20;99.90
37242;DHT22;23135;51.078;12.108;2023-01-25T11:01:24;1.10;99.90
37242;DHT22;23135;51.078;12.108;2023-01-25T11:03:50;1.10;99.90
37242;DHT22;23135;51.078;12.108;2023-01-25T11:06:32;1.10;99.90
37242;DHT22;23135;51.078;12.108;2023-01-25T11:08:58;1.10;99.90
37242;DHT22;23135;51.078;12.108;2023-01-25T11:11:34;1.10;99.90
37242;DHT22;23135;51.078;12.108;2023-01-25T11:14:00;1.10;99.90
37242;DHT22;23135;51.078;12.108;2023-01-25T11:16:36;1.10;99.90
37242;DHT22;23135;51.078;12.108;2023-01-25T11:19:37;1.20;99.90
37242;DHT22;23135;51.078;12.108;2023-01-25T11:22:20;1.20;99.90
37242;DHT22;23135;51.078;12.108;2023-01-25T11:24:48;1.20;99.90
37242;DHT22;23135;51.078;12.108;2023-01-25T11:27:26;1.10;99.90
37242;DHT22;23135;51.078;12.108;2023-01-25T11:32:30;1.10;99.90
37242;DHT22;23135;51.078;12.108;2023-01-25T11:34:56;1.10;99.90
37242;DHT22;23135;51.078;12.108;2023-01-25T11:51:17;1.10;99.90
37242;DHT22;23135;51.078;12.108;2023-01-25T11:59:25;1.10;99.90
37242;DHT22;23135;51.078;12.108;2023-01-25T12:07:20;1.10;99.90
37242;DHT22;23135;51.078;12.108;2023-01-25T12:28:58;1.20;99.90
37242;DHT22;23135;51.078;12.108;2023-01-25T12:31:36;1.20;99.90
37242;DHT22;23135;51.078;12.108;2023-01-25T12:34:18;1.20;99.90
37242;DHT22;23135;51.078;12.108;2023-01-25T12:36:47;1.10;99.90
37242;DHT22;23135;51.078;12.108;2023-01-25T12:39:30;1.10;99.90
37242;DHT22;23135;51.078;12.108;2023-01-25T12:41:59;1.10;99.90
37242;DHT22;23135;51.078;12.108;2023-01-25T12:45:14;1.10;99.90
37242;DHT22;23135;51.078;12.108;2023-01-25T12:47:38;1.10;99.90
37242;DHT22;23135;51.078;12.108;2023-01-25T12:50:14;1.20;99.90
37242;DHT22;23135;51.078;12.108;2023-01-25T12:52:51;1.10;99.90
37242;DHT22;23135;51.078;12.108;2023-01-25T12:55:18;1.10;99.90
37242;DHT22;23135;51.078;12.108;2023-01-25T13:00:28;1.10;99.90
37242;DHT22;23135;51.078;12.108;2023-01-25T13:06:19;1.10;99.90
37242;DHT22;23135;51.078;12.108;2023-01-25T13:09:12;1.10;99.90
37242;DHT22;23135;51.078;12.108;2023-01-25T13:11:42;1.10;99.90
37242;DHT22;23135;51.078;12.108;2023-01-25T13:16:46;1.10;99.90
37242;DHT22;23135;51.078;12.108;2023-01-25T13:21:57;1.10;99.90
37242;DHT22;23135;51.078;12.108;2023-01-25T13:24:28;1.10;99.90
37242;DHT22;23135;51.078;12.108;2023-01-25T13:32:14;1.10;99.90
37242;DHT22;23135;51.078;12.108;2023-01-25T13:34:59;1.10;99.90
37242;DHT22;23135;51.078;12.108;2023-01-25T13:37:30;1.10;99.90
37242;DHT22;23135;51.078;12.108;2023-01-25T13:40:04;1.10;99.90
37242;DHT22;23135;51.078;12.108;2023-01-25T13:42:35;1.10;99.90
37242;DHT22;23135;51.078;12.108;2023-01-25T13:45:11;1.00;99.90
37242;DHT22;23135;51.078;12.108;2023-01-25T13:47:38;1.00;99.90
37242;DHT22;23135;51.078;12.108;2023-01-25T13:50:25;1.00;99.90
37242;DHT22;23135;51.078;12.108;2023-01-25T13:52:59;1.00;99.90
37242;DHT22;23135;51.078;12.108;2023-01-25T13:55:26;1.00;99.90
37242;DHT22;23135;51.078;12.108;2023-01-25T13:57:52;1.00;99.90
37242;DHT22;23135;51.078;12.108;2023-01-25T14:00:19;1.00;99.90
37242;DHT22;23135;51.078;12.108;2023-01-25T14:02:52;0.90;99.90
37242;DHT22;23135;51.078;12.108;2023-01-25T14:05:20;1.00;99.90
37242;DHT22;23135;51.078;12.108;2023-01-25T14:07:49;1.00;99.90
37242;DHT22;23135;51.078;12.108;2023-01-25T14:10:19;0.90;99.90
37242;DHT22;23135;51.078;12.108;2023-01-25T14:12:48;0.90;99.90
37242;DHT22;23135;51.078;12.108;2023-01-25T14:15:17;0.90;99.90
37242;DHT22;23135;51.078;12.108;2023-01-25T14:17:44;0.90;99.90
37242;DHT22;23135;51.078;12.108;2023-01-25T14:20:21;0.90;99.90
37242;DHT22;23135;51.078;12.108;2023-01-25T14:22:50;0.90;99.90
37242;DHT22;23135;51.078;12.108;2023-01-25T14:25:19;0.80;99.90
37242;DHT22;23135;51.078;12.108;2023-01-25T14:32:42;0.80;99.90
37242;DHT22;23135;51.078;12.108;2023-01-25T14:35:37;0.80;99.90
37242;DHT22;23135;51.078;12.108;2023-01-25T14:38:33;0.70;99.90
37242;DHT22;23135;51.078;12.108;2023-01-25T14:43:36;0.70;99.90
37242;DHT22;23135;51.078;12.108;2023-01-25T14:46:24;0.70;99.90
37242;DHT22;23135;51.078;12.108;2023-01-25T14:48:50;0.70;99.90
37242;DHT22;23135;51.078;12.108;2023-01-25T14:51:29;0.70;99.90
37242;DHT22;23135;51.078;12.108;2023-01-25T14:54:09;0.70;99.90
37242;DHT22;23135;51.078;12.108;2023-01-25T14:56:41;0.60;99.90
37242;DHT22;23135;51.078;12.108;2023-01-25T14:59:38;0.70;99.90
37242;DHT22;23135;51.078;12.108;2023-01-25T15:02:14;0.60;99.90
37242;DHT22;23135;51.078;12.108;2023-01-25T15:07:51;0.60;99.90
37242;DHT22;23135;51.078;12.108;2023-01-25T15:15:48;0.50;99.90
37242;DHT22;23135;51.078;12.108;2023-01-25T15:18:50;0.50;99.90
37242;DHT22;23135;51.078;12.108;2023-01-25T15:23:46;0.60;99.90
37242;DHT22;23135;51.078;12.108;2023-01-25T15:26:29;0.50;99.90
37242;DHT22;23135;51.078;12.108;2023-01-25T15:28:58;0.50;99.90
37242;DHT22;23135;51.078;12.108;2023-01-25T15:31:26;0.50;99.90
37242;DHT22;23135;51.078;12.108;2023-01-25T15:33:53;0.50;99.90
37242;DHT22;23135;51.078;12.108;2023-01-25T15:36:19;0.50;99.90
37242;DHT22;23135;51.078;12.108;2023-01-25T15:38:45;0.50;99.90
37242;DHT22;23135;51.078;12.108;2023-01-25T15:41:11;0.50;99.90
37242;DHT22;23135;51.078;12.108;2023-01-25T15:43:38;0.50;99.90
37242;DHT22;23135;51.078;12.108;2023-01-25T15:46:05;0.40;99.90
37242;DHT22;23135;51.078;12.108;2023-01-25T15:48:37;0.40;99.90
37242;DHT22;23135;51.078;12.108;2023-01-25T15:51:05;0.40;99.90
37242;DHT22;23135;51.078;12.108;2023-01-25T15:53:31;0.50;99.90
37242;DHT22;23135;51.078;12.108;2023-01-25T15:56:40;0.40;99.90
37242;DHT22;23135;51.078;12.108;2023-01-25T15:58:50;0.40;99.90
37242;DHT22;23135;51.078;12.108;2023-01-25T16:01:16;0.40;99.90
37242;DHT22;23135;51.078;12.108;2023-01-25T16:03:42;0.40;99.90
37242;DHT22;23135;51.078;12.108;2023-01-25T16:08:53;0.40;99.90
37242;DHT22;23135;51.078;12.108;2023-01-25T16:11:18;0.40;99.90
37242;DHT22;23135;51.078;12.108;2023-01-25T16:13:44;0.40;99.90
37242;DHT22;23135;51.078;12.108;2023-01-25T16:16:23;0.40;99.90
37242;DHT22;23135;51.078;12.108;2023-01-25T16:18:49;0.40;99.90
37242;DHT22;23135;51.078;12.108;2023-01-25T16:21:15;0.40;99.90
37242;DHT22;23135;51.078;12.108;2023-01-25T16:23:41;0.40;99.90
37242;DHT22;23135;51.078;12.108;2023-01-25T16:26:17;0.40;99.90
37242;DHT22;23135;51.078;12.108;2023-01-25T16:28:44;0.50;99.90
37242;DHT22;23135;51.078;12.108;2023-01-25T16:31:14;0.40;99.90
37242;DHT22;23135;51.078;12.108;2023-01-25T16:33:40;0.40;99.90
37242;DHT22;23135;51.078;12.108;2023-01-25T16:38:38;0.40;99.90
37242;DHT22;23135;51.078;12.108;2023-01-25T16:41:04;0.40;99.90
37242;DHT22;23135;51.078;12.108;2023-01-25T16:43:29;0.40;99.90
37242;DHT22;23135;51.078;12.108;2023-01-25T16:45:57;0.50;99.90
37242;DHT22;23135;51.078;12.108;2023-01-25T16:48:22;0.50;99.90
37242;DHT22;23135;51.078;12.108;2023-01-25T16:50:49;0.50;99.90
37242;DHT22;23135;51.078;12.108;2023-01-25T16:53:15;0.50;99.90
37242;DHT22;23135;51.078;12.108;2023-01-25T16:55:41;0.50;99.90
37242;DHT22;23135;51.078;12.108;2023-01-25T16:58:06;0.40;99.90
37242;DHT22;23135;51.078;12.108;2023-01-25T17:00:32;0.40;99.90
37242;DHT22;23135;51.078;12.108;2023-01-25T17:02:58;0.40;99.90
37242;DHT22;23135;51.078;12.108;2023-01-25T17:05:23;0.40;99.90
37242;DHT22;23135;51.078;12.108;2023-01-25T17:07:49;0.40;99.90
37242;DHT22;23135;51.078;12.108;2023-01-25T17:10:15;0.50;99.90
37242;DHT22;23135;51.078;12.108;2023-01-25T17:12:41;0.50;99.90
37242;DHT22;23135;51.078;12.108;2023-01-25T17:15:07;0.50;99.90
37242;DHT22;23135;51.078;12.108;2023-01-25T17:17:34;0.50;99.90
37242;DHT22;23135;51.078;12.108;2023-01-25T17:19:59;0.50;99.90
37242;DHT22;23135;51.078;12.108;2023-01-25T17:22:25;0.50;99.90
37242;DHT22;23135;51.078;12.108;2023-01-25T17:24:51;0.50;99.90
37242;DHT22;23135;51.078;12.108;2023-01-25T17:27:17;0.50;99.90
37242;DHT22;23135;51.078;12.108;2023-01-25T17:29:42;0.50;99.90
37242;DHT22;23135;51.078;12.108;2023-01-25T17:32:08;0.50;99.90
37242;DHT22;23135;51.078;12.108;2023-01-25T17:34:33;0.50;99.90
37242;DHT22;23135;51.078;12.108;2023-01-25T17:36:59;0.50;99.90
37242;DHT22;23135;51.078;12.108;2023-01-25T17:39:25;0.50;99.90
37242;DHT22;23135;51.078;12.108;2023-01-25T17:41:51;0.50;99.90
37242;DHT22;23135;51.078;12.108;2023-01-25T17:44:19;0.50;99.90
37242;DHT22;23135;51.078;12.108;2023-01-25T17:46:45;0.50;99.90